»·PEaware :: ASA484 KSEA-KSAN

ASA484 :: KSEA-KSAN

FLIGHT INFORMATION

Flight Status: Arrived
Operator:
Alaska Airlines
More flights by this operator :: More flights under this callsign
Pilot: Colin A. (19898)
Aircraft: MCDONNELL-DOUGLAS MD-82
(MD82)
More flights by this aircraft type
Origin: KSEA Seattle-Tacoma Intl
United States
Destination: KSAN San Diego Intl-Lindbergh
United States
More flights between these airports :: More routes between these airports
Route: SUMMA1 SUMMA PAAGE Q11 PASKE HUULK COMIX2
File this flight plan on PilotEdge
Remarks: PBN / A1B2 DOF / 180805 REG / N882SB EET / KZOA0056 KZLA0137 OPR / ASA PER / C RMK / TCAS SIMBRIEF
Altitude:
(Current/Filed)
33,000ft
Speed:
(Current/Filed)
449kts
Departed: 05-Aug-18 09:23 AM
Arrived: 05-Aug-18 11:55 AM
Distance/Time
Traveled:
913nm/2:32
Distance/Time
To Go:
Arrived

Flight Plot

Page will automatically refresh every two minutes.

Flight plan parsing failed; only flown route is shown


Map Options




Map Legend


Flown Route
Filed Route
Departure Airport
Arrival Airport
Navaid (VOR, NDB)
Fix

Horizontal Profiles

Position Reports

Time Latitude Longitude Heading Altitude Ground
Speed
05-Aug-18 09:08 47.447901 -122.302969 37 442ft 0kts
05-Aug-18 09:09 47.447901 -122.302969 37 442ft 0kts
05-Aug-18 09:10 47.447901 -122.302969 37 442ft 0kts
05-Aug-18 09:11 47.447541 -122.303195 350 442ft 2kts
05-Aug-18 09:12 47.447275 -122.302904 307 442ft 0kts
05-Aug-18 09:13 47.447277 -122.302907 307 442ft 0kts
05-Aug-18 09:14 47.447280 -122.302912 307 442ft 0kts
05-Aug-18 09:15 47.447350 -122.303045 307 442ft 0kts
05-Aug-18 09:16 47.447593 -122.303968 274 442ft 0kts
05-Aug-18 09:17 47.447837 -122.306069 328 442ft 13kts
05-Aug-18 09:18 47.455532 -122.306137 1 442ft 34kts
05-Aug-18 09:19 47.462222 -122.306143 1 442ft 8kts
05-Aug-18 09:20 47.463394 -122.306563 279 442ft 0kts
05-Aug-18 09:21 47.463394 -122.306566 279 442ft 0kts
05-Aug-18 09:22 47.463395 -122.306570 279 442ft 0kts
05-Aug-18 09:23 47.462848 -122.307717 181 442ft 0kts
05-Aug-18 09:24 47.453622 -122.307823 180 442ft 127kts
05-Aug-18 09:25 47.400314 -122.307919 180 2036ft 222kts
05-Aug-18 09:26 47.335289 -122.307991 181 3954ft 241kts
05-Aug-18 09:27 47.265128 -122.308189 181 5646ft 267kts
05-Aug-18 09:28 47.187891 -122.305148 161 7425ft 280kts
05-Aug-18 09:29 47.127161 -122.242038 148 11242ft 259kts
05-Aug-18 09:30 47.055348 -122.191664 157 11781ft 315kts
05-Aug-18 09:31 46.968078 -122.145371 161 12673ft 346kts
05-Aug-18 09:32 46.875194 -122.102369 162 14183ft 354kts
05-Aug-18 09:33 46.780247 -122.060128 162 15839ft 359kts
05-Aug-18 09:34 46.683733 -122.015902 161 17490ft 366kts
05-Aug-18 09:35 46.588290 -121.960605 142 18962ft 373kts
05-Aug-18 09:36 46.511848 -121.857294 135 20351ft 379kts
05-Aug-18 09:37 46.431575 -121.756217 146 21595ft 388kts
05-Aug-18 09:38 46.326798 -121.711593 169 22755ft 398kts
05-Aug-18 09:39 46.216689 -121.686657 168 23773ft 405kts
05-Aug-18 09:40 46.104818 -121.658488 167 24747ft 411kts
05-Aug-18 09:41 45.991722 -121.628763 167 25696ft 416kts
05-Aug-18 09:42 45.876550 -121.599010 167 26632ft 422kts
05-Aug-18 09:43 45.760441 -121.568726 167 27497ft 427kts
05-Aug-18 09:44 45.642693 -121.538004 167 28288ft 433kts
05-Aug-18 09:45 45.523334 -121.507341 166 29043ft 437kts
05-Aug-18 09:46 45.403338 -121.476027 167 29704ft 441kts
05-Aug-18 09:47 45.282503 -121.444662 167 30490ft 440kts
05-Aug-18 09:48 45.162023 -121.413947 167 31270ft 438kts
05-Aug-18 09:49 45.042263 -121.383302 167 31973ft 437kts
05-Aug-18 09:50 44.922816 -121.352608 167 32595ft 435kts
05-Aug-18 09:51 44.803555 -121.322111 167 33044ft 438kts
05-Aug-18 09:52 44.683568 -121.292682 167 33058ft 436kts
05-Aug-18 09:53 44.563718 -121.262298 168 33062ft 437kts
05-Aug-18 09:54 44.444068 -121.233266 168 33063ft 437kts
05-Aug-18 09:55 44.324043 -121.204116 168 33063ft 437kts
05-Aug-18 09:56 44.204517 -121.174034 167 33064ft 436kts
05-Aug-18 09:57 44.084684 -121.144315 168 33082ft 440kts
05-Aug-18 09:58 43.965154 -121.114792 168 33083ft 436kts
05-Aug-18 09:59 43.845407 -121.085862 168 33082ft 436kts
05-Aug-18 10:00 43.725401 -121.056950 168 33081ft 436kts
05-Aug-18 10:01 43.605897 -121.028542 168 33080ft 436kts
05-Aug-18 10:02 43.487178 -120.995615 163 33077ft 435kts
05-Aug-18 10:03 43.369340 -120.956813 167 33075ft 436kts
05-Aug-18 10:04 43.249346 -120.931034 170 33075ft 436kts
05-Aug-18 10:05 43.128859 -120.909575 170 33076ft 437kts
05-Aug-18 10:06 43.009310 -120.884336 168 33076ft 434kts
05-Aug-18 10:07 42.890138 -120.854970 168 33077ft 435kts
05-Aug-18 10:08 42.770779 -120.826583 168 33079ft 435kts
05-Aug-18 10:09 42.651921 -120.797599 167 33080ft 434kts
05-Aug-18 10:10 42.533384 -120.769063 168 33081ft 433kts
05-Aug-18 10:11 42.414382 -120.740700 168 33082ft 433kts
05-Aug-18 10:12 42.295346 -120.712541 168 33084ft 435kts
05-Aug-18 10:13 42.176894 -120.683931 168 33083ft 432kts
05-Aug-18 10:14 42.058414 -120.655738 168 33081ft 432kts
05-Aug-18 10:15 41.940030 -120.627414 168 33077ft 430kts
05-Aug-18 10:16 41.821812 -120.599128 168 33071ft 432kts
05-Aug-18 10:17 41.703613 -120.571083 168 33062ft 431kts
05-Aug-18 10:18 41.585214 -120.543968 168 33055ft 431kts
05-Aug-18 10:19 41.467168 -120.517075 168 33053ft 431kts
05-Aug-18 10:20 41.349244 -120.489129 168 33053ft 430kts
05-Aug-18 10:21 41.231362 -120.462620 168 33055ft 430kts
05-Aug-18 10:22 41.113704 -120.436125 168 33056ft 430kts
05-Aug-18 10:23 40.996036 -120.407052 167 33056ft 427kts
05-Aug-18 10:24 40.880228 -120.373107 165 33051ft 426kts
05-Aug-18 10:25 40.765122 -120.336388 165 33050ft 425kts
05-Aug-18 10:26 40.649772 -120.300902 165 33048ft 424kts
05-Aug-18 10:27 40.534723 -120.265244 165 33048ft 424kts
05-Aug-18 10:28 40.420262 -120.229891 166 33048ft 424kts
05-Aug-18 10:29 40.305962 -120.195300 166 33056ft 421kts
05-Aug-18 10:30 40.191662 -120.161158 166 33068ft 422kts
05-Aug-18 10:31 40.077630 -120.126324 166 33079ft 419kts
05-Aug-18 10:32 39.964085 -120.091863 166 33093ft 420kts
05-Aug-18 10:33 39.850144 -120.057359 166 33109ft 420kts
05-Aug-18 10:34 39.736415 -120.022762 166 33122ft 422kts
05-Aug-18 10:35 39.622415 -119.988033 167 33128ft 419kts
05-Aug-18 10:36 39.508945 -119.954630 167 33129ft 417kts
05-Aug-18 10:37 39.395459 -119.920777 167 33137ft 417kts
05-Aug-18 10:38 39.281895 -119.887841 168 33147ft 417kts
05-Aug-18 10:39 39.168996 -119.854452 168 33142ft 415kts
05-Aug-18 10:40 39.075239 -119.826229 169 33139ft 415kts
05-Aug-18 10:41 38.944444 -119.787907 170 33065ft 407kts
05-Aug-18 10:42 38.834898 -119.756190 170 33223ft 402kts
05-Aug-18 10:43 38.742682 -119.729643 170 33139ft 417kts
05-Aug-18 10:44 38.630243 -119.696739 170 33125ft 413kts
05-Aug-18 10:45 38.500021 -119.655594 167 33124ft 413kts
05-Aug-18 10:46 38.407215 -119.624660 170 33123ft 412kts
05-Aug-18 10:47 38.295047 -119.595768 173 33124ft 412kts
05-Aug-18 10:48 38.163841 -119.562612 171 33127ft 412kts
05-Aug-18 10:49 38.070522 -119.536391 171 33127ft 412kts
05-Aug-18 10:50 37.958596 -119.504636 171 33118ft 411kts
05-Aug-18 10:51 37.847334 -119.473188 172 33112ft 411kts
05-Aug-18 10:52 37.735805 -119.441238 172 33103ft 409kts
05-Aug-18 10:53 37.624915 -119.410409 172 33099ft 408kts
05-Aug-18 10:54 37.513910 -119.379537 173 33073ft 408kts
05-Aug-18 10:55 37.403066 -119.348510 173 33072ft 408kts
05-Aug-18 10:56 37.292620 -119.318064 173 33103ft 406kts
05-Aug-18 10:57 37.181909 -119.286869 174 33110ft 405kts
05-Aug-18 10:58 37.071678 -119.256618 174 33115ft 404kts
05-Aug-18 10:59 36.961803 -119.226055 174 33122ft 404kts
05-Aug-18 11:00 36.852363 -119.196220 175 33126ft 403kts
05-Aug-18 11:01 36.742809 -119.166398 175 33122ft 403kts
05-Aug-18 11:02 36.633084 -119.136660 176 33122ft 402kts
05-Aug-18 11:03 36.523852 -119.106951 176 33122ft 401kts
05-Aug-18 11:04 36.414472 -119.077328 176 33116ft 402kts
05-Aug-18 11:05 36.305332 -119.047323 176 33113ft 401kts
05-Aug-18 11:06 36.196420 -119.016454 176 33119ft 401kts
05-Aug-18 11:07 36.087582 -118.987318 178 33122ft 398kts
05-Aug-18 11:08 35.978968 -118.960000 178 33121ft 399kts
05-Aug-18 11:09 35.870782 -118.931615 178 33117ft 397kts
05-Aug-18 11:10 35.762547 -118.903037 178 33112ft 398kts
05-Aug-18 11:11 35.654218 -118.874387 178 33098ft 398kts
05-Aug-18 11:12 35.545938 -118.845715 178 33095ft 398kts
05-Aug-18 11:13 35.437702 -118.817008 178 33096ft 398kts
05-Aug-18 11:14 35.329652 -118.788315 178 33098ft 398kts
05-Aug-18 11:15 35.221266 -118.759616 178 33106ft 399kts
05-Aug-18 11:16 35.112456 -118.730889 178 33118ft 400kts
05-Aug-18 11:17 35.003661 -118.702064 178 33124ft 399kts
05-Aug-18 11:18 34.895136 -118.674365 177 33129ft 401kts
05-Aug-18 11:19 34.785968 -118.641864 177 33137ft 401kts
05-Aug-18 11:20 34.677182 -118.613759 179 33135ft 401kts
05-Aug-18 11:21 34.567758 -118.584569 168 33120ft 413kts
05-Aug-18 11:22 34.466199 -118.510473 156 33107ft 432kts
05-Aug-18 11:23 34.365318 -118.433617 160 33097ft 426kts
05-Aug-18 11:24 34.262546 -118.361871 160 33100ft 427kts
05-Aug-18 11:25 34.165231 -118.293108 159 33068ft 428kts
05-Aug-18 11:26 34.062885 -118.220073 159 31866ft 421kts
05-Aug-18 11:27 33.963522 -118.150001 159 30067ft 408kts
05-Aug-18 11:28 33.865969 -118.082552 159 28260ft 397kts
05-Aug-18 11:29 33.771217 -118.018057 160 26460ft 385kts
05-Aug-18 11:30 33.678454 -117.957725 159 24662ft 375kts
05-Aug-18 11:31 33.588200 -117.898048 159 22860ft 366kts
05-Aug-18 11:32 33.499414 -117.839407 158 21227ft 361kts
05-Aug-18 11:33 33.415184 -117.775568 147 19503ft 361kts
05-Aug-18 11:34 33.342353 -117.694450 143 17704ft 353kts
05-Aug-18 11:35 33.270617 -117.616881 144 15902ft 342kts
05-Aug-18 11:36 33.200149 -117.542499 144 14101ft 333kts
05-Aug-18 11:37 33.131193 -117.471107 145 12513ft 315kts
05-Aug-18 11:38 33.063386 -117.413998 150 11436ft 282kts
05-Aug-18 11:39 33.000686 -117.362662 148 10324ft 269kts
05-Aug-18 11:40 32.939771 -117.311640 147 9272ft 267kts
05-Aug-18 11:41 32.879347 -117.261217 146 8168ft 263kts
05-Aug-18 11:42 32.820227 -117.211491 143 7207ft 258kts
05-Aug-18 11:43 32.796289 -117.134985 101 6475ft 259kts
05-Aug-18 11:44 32.778976 -117.052222 111 6132ft 258kts
05-Aug-18 11:45 32.748720 -116.975009 111 6121ft 258kts
05-Aug-18 11:46 32.726255 -116.893595 108 6116ft 258kts
05-Aug-18 11:47 32.704658 -116.812066 108 6115ft 260kts
05-Aug-18 11:48 32.656579 -116.766231 199 5271ft 245kts
05-Aug-18 11:49 32.646052 -116.832352 302 5141ft 244kts
05-Aug-18 11:50 32.668749 -116.907252 282 5122ft 244kts
05-Aug-18 11:51 32.686492 -116.984556 285 3855ft 228kts
05-Aug-18 11:52 32.701563 -117.049696 284 2696ft 202kts
05-Aug-18 11:53 32.716081 -117.113328 284 1618ft 190kts
05-Aug-18 11:54 32.727997 -117.166298 286 315ft 142kts
05-Aug-18 11:55 32.735896 -117.199236 286 24ft 43kts
05-Aug-18 11:56 32.735772 -117.201712 209 24ft 2kts
05-Aug-18 11:57 32.735073 -117.200093 106 24ft 13kts
05-Aug-18 11:58 32.733846 -117.198570 176 24ft 0kts
05-Aug-18 11:59 32.733845 -117.198570 176 24ft 0kts
05-Aug-18 12:00 32.733845 -117.198570 176 24ft 0kts
05-Aug-18 12:01 32.733845 -117.198570 176 24ft 0kts
05-Aug-18 12:02 32.733845 -117.198570 176 24ft 0kts

Navigation Log

Ident Type
Flight plan parsing failed, navigation log unavailable